createdAt,value
2017-01-09T05:43:31.836Z,0
2017-01-09T05:44:50.056Z,0
2017-01-09T05:46:07.936Z,0
2017-01-09T05:47:28.774Z,0
2017-01-09T05:48:52.359Z,0
2017-01-09T05:50:14.306Z,0
2017-01-09T05:51:32.337Z,0
2017-01-09T05:52:53.058Z,0
2017-01-09T05:54:06.579Z,0
2017-01-09T05:55:20.028Z,0
2017-01-09T05:56:33.467Z,0
2017-01-09T05:57:46.889Z,0
2017-01-09T05:59:00.758Z,0
2017-01-09T06:00:14.179Z,0
2017-01-09T06:01:27.620Z,0
2017-01-09T06:02:41.062Z,0
2017-01-09T06:03:54.491Z,0
2017-01-09T06:05:07.961Z,0
2017-01-09T06:06:21.423Z,0
2017-01-09T06:07:34.873Z,0
2017-01-09T06:08:48.321Z,0
2017-01-09T06:10:01.836Z,0
2017-01-09T06:11:15.321Z,0
2017-01-09T06:12:28.844Z,0
2017-01-09T06:13:42.333Z,0
2017-01-09T06:14:56.302Z,0
2017-01-09T06:16:09.744Z,0
2017-01-09T06:17:23.212Z,0
2017-01-09T06:18:36.688Z,0
2017-01-09T06:19:50.363Z,0
2017-01-09T06:21:04.078Z,0
2017-01-09T06:22:17.640Z,0
2017-01-09T06:23:43.828Z,0
2017-01-09T06:24:57.362Z,0
2017-01-09T06:26:10.814Z,0
2017-01-09T06:27:24.249Z,0
2017-01-09T06:28:37.671Z,0
2017-01-09T06:29:51.502Z,0
2017-01-09T06:31:04.985Z,0
2017-01-09T06:32:18.456Z,0
2017-01-09T06:33:31.911Z,0
2017-01-09T06:34:45.471Z,0
2017-01-09T06:35:58.949Z,0
2017-01-09T06:37:12.384Z,0
2017-01-09T06:38:26.209Z,0
2017-01-09T06:39:39.665Z,0
2017-01-09T06:40:53.211Z,0
2017-01-09T06:42:06.652Z,0
2017-01-09T06:43:20.502Z,0
2017-01-09T06:44:33.982Z,0
2017-01-09T06:45:47.465Z,0
2017-01-09T06:47:00.985Z,0
2017-01-09T06:48:14.436Z,0
2017-01-09T06:49:27.857Z,0
2017-01-09T06:50:41.314Z,0
2017-01-09T06:51:54.839Z,0
2017-01-09T06:53:08.323Z,0
2017-01-09T06:54:21.812Z,0
2017-01-09T06:55:35.292Z,0
2017-01-09T06:56:49.947Z,0
2017-01-09T06:58:03.448Z,0
2017-01-09T06:59:16.924Z,4
2017-01-09T07:00:30.471Z,0
2017-01-09T07:01:43.924Z,0
2017-01-09T07:02:57.954Z,4
2017-01-09T07:04:11.870Z,4
2017-01-09T07:05:25.545Z,4
2017-01-09T07:06:39.377Z,8
2017-01-09T07:07:52.936Z,8
2017-01-09T07:09:08.588Z,4
2017-01-09T07:10:22.468Z,8
2017-01-09T07:11:36.041Z,8
2017-01-09T07:12:49.513Z,12
2017-01-09T07:14:03.135Z,16
2017-01-09T07:15:16.826Z,16
2017-01-09T07:16:30.398Z,20
2017-01-09T07:17:43.886Z,20
2017-01-09T07:18:57.371Z,20
2017-01-09T07:20:10.952Z,24
2017-01-09T07:21:24.378Z,28
2017-01-09T07:22:37.850Z,32
2017-01-09T07:23:51.758Z,36
2017-01-09T07:25:05.192Z,40
2017-01-09T07:26:18.648Z,40
2017-01-09T07:27:32.142Z,44
2017-01-09T07:28:45.966Z,48
2017-01-09T07:29:59.388Z,48
2017-01-09T07:31:12.811Z,56
2017-01-09T07:32:26.402Z,68
2017-01-09T07:33:39.855Z,72
2017-01-09T07:34:53.381Z,80
2017-01-09T07:36:06.861Z,88
2017-01-09T07:37:20.333Z,88
2017-01-09T07:38:35.055Z,88
2017-01-09T07:39:48.530Z,92
2017-01-09T07:41:02.007Z,108
2017-01-09T07:42:15.847Z,108
2017-01-09T07:43:29.430Z,112
2017-01-09T07:44:42.881Z,112
2017-01-09T07:45:56.337Z,112
2017-01-09T07:47:09.777Z,112
2017-01-09T07:48:23.298Z,124
2017-01-09T07:49:37.148Z,128
2017-01-09T07:50:50.611Z,128
2017-01-09T07:52:04.469Z,140
2017-01-09T07:53:17.990Z,132
2017-01-09T07:54:31.589Z,136
2017-01-09T07:55:45.251Z,160
2017-01-09T07:56:58.715Z,160
2017-01-09T07:58:12.160Z,156
2017-01-09T07:59:25.820Z,180
2017-01-09T08:00:39.248Z,188
2017-01-09T08:01:52.668Z,172
2017-01-09T08:03:06.130Z,176
2017-01-09T08:04:20.828Z,168
2017-01-09T08:05:34.338Z,188
2017-01-09T08:06:47.781Z,208
2017-01-09T08:08:01.219Z,208
2017-01-09T08:09:14.674Z,224
2017-01-09T08:10:28.171Z,228
2017-01-09T08:11:42.016Z,244
2017-01-09T08:12:55.473Z,252
2017-01-09T08:14:08.984Z,248
2017-01-09T08:15:22.518Z,236
2017-01-09T08:16:36.466Z,252
2017-01-09T08:17:50.343Z,264
2017-01-09T08:19:03.989Z,264
2017-01-09T08:20:19.093Z,288
2017-01-09T08:21:32.985Z,320
2017-01-09T08:22:46.454Z,324
2017-01-09T08:23:59.931Z,280
2017-01-09T08:25:16.840Z,332
2017-01-09T08:26:30.708Z,356
2017-01-09T08:27:44.157Z,372
2017-01-09T08:28:58.033Z,344
2017-01-09T08:30:11.915Z,348
2017-01-09T08:31:25.861Z,360
2017-01-09T08:32:39.352Z,412
2017-01-09T08:33:52.853Z,440
2017-01-09T08:35:06.328Z,452
2017-01-09T08:36:19.876Z,412
2017-01-09T08:37:33.739Z,444
2017-01-09T08:38:47.195Z,432
2017-01-09T08:40:00.647Z,460
2017-01-09T08:41:14.189Z,468
2017-01-09T08:42:27.603Z,456
2017-01-09T08:43:41.081Z,380
2017-01-09T08:44:54.773Z,408
2017-01-09T08:46:08.219Z,464
2017-01-09T08:47:21.814Z,532
2017-01-09T08:48:35.325Z,560
2017-01-09T08:49:48.920Z,440
2017-01-09T08:51:02.451Z,448
2017-01-09T08:52:16.040Z,512
2017-01-09T08:53:29.994Z,612
2017-01-09T08:54:43.474Z,668
2017-01-09T08:55:56.969Z,648
2017-01-09T08:57:10.684Z,612
2017-01-09T08:58:24.380Z,536
2017-01-09T08:59:37.898Z,548
2017-01-09T09:00:51.426Z,524
2017-01-09T09:02:04.862Z,544
2017-01-09T09:03:18.490Z,600
2017-01-09T09:04:32.147Z,632
2017-01-09T09:05:45.619Z,628
2017-01-09T09:06:59.025Z,744
2017-01-09T09:08:12.552Z,756
2017-01-09T09:09:26.488Z,816
2017-01-09T09:10:39.912Z,828
2017-01-09T09:11:53.383Z,816
2017-01-09T09:13:08.103Z,864
2017-01-09T09:14:21.656Z,900
2017-01-09T09:15:35.281Z,912
2017-01-09T09:16:48.918Z,876
2017-01-09T09:18:02.486Z,820
2017-01-09T09:19:16.142Z,792
2017-01-09T09:20:29.657Z,860
2017-01-09T09:21:43.181Z,872
2017-01-09T09:22:56.634Z,916
2017-01-09T09:24:10.201Z,932
2017-01-09T09:25:23.644Z,980
2017-01-09T09:26:37.100Z,976
2017-01-09T09:27:50.652Z,908
2017-01-09T09:29:04.257Z,868
2017-01-09T09:30:18.010Z,900
2017-01-09T09:31:32.001Z,888
2017-01-09T09:32:45.522Z,904
2017-01-09T09:33:59.154Z,920
2017-01-09T09:35:12.745Z,1024
2017-01-09T09:36:26.534Z,980
2017-01-09T09:37:40.158Z,940
2017-01-09T09:38:53.659Z,964
2017-01-09T09:40:07.121Z,972
2017-01-09T09:41:23.147Z,996
2017-01-09T09:42:36.738Z,964
2017-01-09T09:43:50.271Z,1032
2017-01-09T09:45:03.843Z,1100
2017-01-09T09:46:17.321Z,1056
2017-01-09T09:47:30.800Z,1020
2017-01-09T09:48:44.236Z,1052
2017-01-09T09:49:57.749Z,1044
2017-01-09T09:51:12.532Z,1128
2017-01-09T09:52:26.135Z,1120
2017-01-09T09:53:39.946Z,1224
2017-01-09T09:54:53.792Z,1044
2017-01-09T09:56:08.689Z,988
2017-01-09T09:57:22.150Z,1040
2017-01-09T09:58:35.619Z,1132
2017-01-09T09:59:49.483Z,1260
2017-01-09T10:01:04.691Z,1116
2017-01-09T10:02:18.209Z,1060
2017-01-09T10:03:31.742Z,1032
2017-01-09T10:04:45.220Z,1060
2017-01-09T10:05:58.717Z,1048
2017-01-09T10:07:12.258Z,1096
2017-01-09T10:08:25.786Z,1128
2017-01-09T10:09:39.412Z,1188
2017-01-09T10:10:52.950Z,1156
2017-01-09T10:12:06.998Z,1232
2017-01-09T10:13:20.591Z,1100
2017-01-09T10:14:34.564Z,1084
2017-01-09T10:15:48.088Z,1056
2017-01-09T10:17:01.405Z,1108
2017-01-09T10:18:14.921Z,1088
2017-01-09T10:19:28.580Z,1252
2017-01-09T10:20:42.464Z,1220
2017-01-09T10:21:56.664Z,1196
2017-01-09T10:23:10.761Z,1192
2017-01-09T10:24:24.332Z,1244
2017-01-09T10:25:37.848Z,1304
2017-01-09T10:26:51.395Z,1396
2017-01-09T10:28:06.773Z,1460
2017-01-09T10:29:20.476Z,1592
2017-01-09T10:30:33.979Z,1572
2017-01-09T10:31:47.947Z,1548
2017-01-09T10:33:01.578Z,1428
2017-01-09T10:34:15.750Z,1292
2017-01-09T10:35:29.262Z,1412
2017-01-09T10:36:42.834Z,1356
2017-01-09T10:37:56.330Z,1388
2017-01-09T10:39:11.190Z,1416
2017-01-09T10:40:25.185Z,1328
2017-01-09T10:41:38.761Z,1364
2017-01-09T10:42:52.287Z,1400
2017-01-09T10:44:06.024Z,1444
2017-01-09T10:45:20.664Z,1440
2017-01-09T10:46:34.517Z,1312
2017-01-09T10:47:48.626Z,1504
2017-01-09T10:49:17.099Z,1292
2017-01-09T10:50:30.914Z,1380
2017-01-09T10:51:44.467Z,1428
2017-01-09T10:52:58.055Z,1500
2017-01-09T10:54:11.543Z,1516
2017-01-09T10:55:26.086Z,1556
2017-01-09T10:56:40.017Z,1520
2017-01-09T10:57:55.675Z,1488
2017-01-09T10:59:09.313Z,1504
2017-01-09T11:00:24.073Z,1556
2017-01-09T11:01:38.028Z,1652
2017-01-09T11:02:51.515Z,1652
2017-01-09T11:04:05.424Z,1704
2017-01-09T11:05:20.565Z,1772
2017-01-09T11:06:34.484Z,1908
2017-01-09T11:07:48.031Z,2064
2017-01-09T11:09:01.585Z,2144
2017-01-09T11:10:16.399Z,2164
2017-01-09T11:11:29.987Z,2060
2017-01-09T11:12:43.559Z,1896
2017-01-09T11:13:57.090Z,1720
2017-01-09T11:15:10.615Z,1532
2017-01-09T11:16:23.987Z,1544
2017-01-09T11:17:37.518Z,1592
2017-01-09T11:18:50.983Z,1772
2017-01-09T11:20:04.463Z,1880
2017-01-09T11:21:18.036Z,1744
2017-01-09T11:22:31.544Z,1644
2017-01-09T11:23:45.036Z,1612
2017-01-09T11:24:58.517Z,1628
2017-01-09T11:26:11.994Z,1836
2017-01-09T11:27:26.791Z,1824
2017-01-09T11:28:40.316Z,1772
2017-01-09T11:29:53.786Z,1548
2017-01-09T11:31:07.338Z,1460
2017-01-09T11:32:22.091Z,1484
2017-01-09T11:33:35.592Z,1496
2017-01-09T11:34:49.127Z,1592
2017-01-09T11:36:02.632Z,1440
2017-01-09T11:37:16.164Z,1376
2017-01-09T11:38:29.699Z,1516
2017-01-09T11:39:43.211Z,1660
2017-01-09T11:40:56.675Z,1692
2017-01-09T11:42:10.183Z,1608
2017-01-09T11:43:24.683Z,1564
2017-01-09T11:44:38.183Z,1392
2017-01-09T11:45:51.642Z,1440
2017-01-09T11:47:05.469Z,1464
2017-01-09T11:48:18.976Z,1500
2017-01-09T11:49:32.479Z,1548
2017-01-09T11:50:46.108Z,1424
2017-01-09T11:52:00.001Z,1308
2017-01-09T11:53:13.664Z,1428
2017-01-09T11:54:27.120Z,1440
2017-01-09T11:55:40.979Z,1356
2017-01-09T11:56:54.868Z,1432
2017-01-09T11:58:08.317Z,1408
2017-01-09T11:59:21.928Z,1288
2017-01-09T12:00:35.356Z,1344
2017-01-09T12:01:48.803Z,1372
2017-01-09T12:03:02.241Z,1336
2017-01-09T12:04:17.001Z,1384
2017-01-09T12:05:30.529Z,1480
2017-01-09T12:06:43.989Z,1428
2017-01-09T12:07:57.493Z,1380
2017-01-09T12:09:11.177Z,1372
2017-01-09T12:10:24.779Z,1340
2017-01-09T12:11:38.840Z,1440
2017-01-09T12:12:52.337Z,1424
2017-01-09T12:14:07.971Z,1348
2017-01-09T12:15:22.036Z,1352
2017-01-09T12:16:35.598Z,1316
2017-01-09T12:17:51.695Z,1256
2017-01-09T12:19:05.537Z,1280
2017-01-09T12:20:19.277Z,1208
2017-01-09T12:21:34.156Z,1260
2017-01-09T12:22:48.757Z,1280
2017-01-09T12:24:02.755Z,1288
2017-01-09T12:25:16.319Z,1280
2017-01-09T12:26:29.859Z,1340
2017-01-09T12:27:44.201Z,1284
2017-01-09T12:28:57.834Z,1320
2017-01-09T12:30:12.711Z,1388
2017-01-09T12:31:26.695Z,1412
2017-01-09T12:32:41.210Z,1432
2017-01-09T12:33:54.734Z,1432
2017-01-09T12:35:08.262Z,1452
2017-01-09T12:36:21.836Z,1460
2017-01-09T12:37:35.365Z,1456
2017-01-09T12:38:49.377Z,1464
2017-01-09T12:40:03.896Z,1456
2017-01-09T12:41:17.873Z,1420
2017-01-09T12:42:31.338Z,1400
2017-01-09T12:43:44.812Z,1400
2017-01-09T12:44:58.245Z,1344
2017-01-09T12:46:11.815Z,1328
2017-01-09T12:47:25.266Z,1344
2017-01-09T12:48:38.726Z,1320
2017-01-09T12:49:52.206Z,1312
2017-01-09T12:51:05.683Z,1304
2017-01-09T12:52:19.632Z,1284
2017-01-09T12:53:33.161Z,1260
2017-01-09T12:55:25.300Z,1248
2017-01-09T12:56:38.808Z,1248
2017-01-09T12:57:52.211Z,1240
2017-01-09T12:59:05.700Z,1196
2017-01-09T13:00:19.192Z,1188
2017-01-09T13:01:32.731Z,1196
2017-01-09T13:02:46.339Z,1188
2017-01-09T13:03:59.885Z,1180
2017-01-09T13:05:13.312Z,1172
2017-01-09T13:06:26.775Z,1136
2017-01-09T13:07:41.976Z,1120
2017-01-09T13:08:55.503Z,1108
2017-01-09T13:10:08.979Z,1088
2017-01-09T13:11:22.442Z,1100
2017-01-09T13:12:35.987Z,1088
2017-01-09T13:13:49.507Z,1080
2017-01-09T13:15:03.001Z,1068
2017-01-09T13:16:16.483Z,1044
2017-01-09T13:17:30.035Z,1040
2017-01-09T13:18:43.973Z,1032
2017-01-09T13:19:57.602Z,1020
2017-01-09T13:21:12.637Z,1020
2017-01-09T13:22:26.078Z,988
2017-01-09T13:23:39.608Z,952
2017-01-09T13:24:53.109Z,924
2017-01-09T13:26:06.760Z,908
2017-01-09T13:27:20.362Z,884
2017-01-09T13:28:33.986Z,884
2017-01-09T13:29:47.674Z,872
2017-01-09T13:31:03.391Z,848
2017-01-09T13:32:17.146Z,832
2017-01-09T13:33:32.314Z,828
2017-01-09T13:34:45.986Z,820
2017-01-09T13:35:59.914Z,816
2017-01-09T13:37:13.814Z,800
2017-01-09T13:38:27.376Z,788
2017-01-09T13:39:40.793Z,780
2017-01-09T13:40:54.248Z,784
2017-01-09T13:42:07.739Z,804
2017-01-09T13:43:21.641Z,812
2017-01-09T13:44:35.167Z,812
2017-01-09T13:45:48.649Z,784
2017-01-09T13:47:02.165Z,764
2017-01-09T13:48:15.757Z,748
2017-01-09T13:49:29.408Z,744
2017-01-09T13:50:43.128Z,748
2017-01-09T13:51:56.735Z,736
2017-01-09T13:53:10.428Z,736
2017-01-09T13:54:23.971Z,728
2017-01-09T13:55:37.904Z,716
2017-01-09T13:56:51.358Z,712
2017-01-09T13:58:04.846Z,728
2017-01-09T13:59:18.319Z,736
2017-01-09T14:00:31.828Z,724
2017-01-09T14:01:45.828Z,712
2017-01-09T14:02:59.764Z,704
2017-01-09T14:04:13.679Z,696
2017-01-09T14:05:27.179Z,692
2017-01-09T14:06:40.636Z,676
2017-01-09T14:07:54.076Z,660
2017-01-09T14:09:07.737Z,640
2017-01-09T14:10:22.091Z,612
2017-01-09T14:13:45.439Z,584
2017-01-09T14:14:58.880Z,564
2017-01-09T14:16:13.593Z,536
2017-01-09T14:17:27.151Z,516
2017-01-09T14:18:40.577Z,504
2017-01-09T14:19:54.021Z,500
2017-01-09T14:21:07.506Z,500
2017-01-09T14:22:20.981Z,492
2017-01-09T14:23:34.471Z,480
2017-01-09T14:24:47.962Z,452
2017-01-09T14:26:01.423Z,436
2017-01-09T14:27:14.973Z,424
2017-01-09T14:28:28.799Z,416
2017-01-09T14:29:42.284Z,408
2017-01-09T14:30:55.742Z,400
2017-01-09T14:32:09.240Z,396
2017-01-09T14:33:22.722Z,396
2017-01-09T14:34:36.174Z,388
2017-01-09T14:35:49.635Z,376
2017-01-09T14:37:03.113Z,368
2017-01-09T14:38:16.639Z,360
2017-01-09T14:39:30.060Z,348
2017-01-09T14:40:43.491Z,340
2017-01-09T14:41:56.986Z,324
2017-01-09T14:43:10.522Z,308
2017-01-09T14:44:24.316Z,300
2017-01-09T14:45:37.810Z,288
2017-01-09T14:46:51.468Z,272
2017-01-09T14:48:05.009Z,268
2017-01-09T14:49:20.685Z,252
2017-01-09T14:50:34.382Z,240
2017-01-09T14:51:47.874Z,236
2017-01-09T14:53:04.183Z,228
2017-01-09T14:54:18.953Z,220
2017-01-09T14:55:32.506Z,212
2017-01-09T14:56:46.137Z,200
2017-01-09T14:58:01.200Z,192
2017-01-09T14:59:14.716Z,188
2017-01-09T15:00:28.718Z,184
2017-01-09T15:01:42.960Z,180
2017-01-09T15:02:56.936Z,176
2017-01-09T15:04:10.706Z,172
2017-01-09T15:05:24.316Z,164
2017-01-09T15:06:37.925Z,156
2017-01-09T15:07:51.494Z,140
2017-01-09T15:09:05.016Z,124
2017-01-09T15:10:18.646Z,108
2017-01-09T15:11:32.557Z,100
2017-01-09T15:12:46.141Z,92
2017-01-09T15:14:00.631Z,84
2017-01-09T15:15:14.313Z,84
2017-01-09T15:16:27.883Z,72
2017-01-09T15:17:41.451Z,72
2017-01-09T15:18:55.595Z,68
2017-01-09T15:20:11.032Z,64
2017-01-09T15:21:24.540Z,60
2017-01-09T15:22:38.607Z,52
2017-01-09T15:23:52.581Z,48
2017-01-09T15:25:07.548Z,48
2017-01-09T15:26:22.476Z,48
2017-01-09T15:27:36.473Z,44
2017-01-09T15:28:49.960Z,44
2017-01-09T15:30:03.615Z,44
2017-01-09T15:31:17.063Z,44
2017-01-09T15:32:30.486Z,40
2017-01-09T15:33:43.987Z,36
2017-01-09T15:34:57.438Z,36
2017-01-09T15:36:11.357Z,32
2017-01-09T15:37:24.832Z,32
2017-01-09T15:38:38.854Z,28
2017-01-09T15:39:52.545Z,24
2017-01-09T15:41:06.061Z,24
2017-01-09T15:42:19.491Z,20
2017-01-09T15:43:33.396Z,20
2017-01-09T15:44:46.841Z,20
2017-01-09T15:46:01.570Z,16
2017-01-09T15:47:15.079Z,16
2017-01-09T15:48:28.675Z,12
2017-01-09T15:49:42.182Z,12
2017-01-09T15:50:55.663Z,8
2017-01-09T15:52:10.164Z,12
2017-01-09T15:53:23.626Z,8
2017-01-09T15:54:37.122Z,8
2017-01-09T15:55:50.619Z,4
2017-01-09T15:57:04.225Z,4
2017-01-09T15:58:17.903Z,4
2017-01-09T15:59:31.472Z,4
2017-01-09T16:00:45.033Z,0
2017-01-09T16:01:58.586Z,0
2017-01-09T16:03:12.249Z,4
2017-01-09T16:04:26.213Z,4
2017-01-09T16:05:41.892Z,0
2017-01-09T16:06:56.722Z,0
2017-01-09T16:08:10.240Z,0
2017-01-09T16:09:30.438Z,0
2017-01-09T16:10:51.831Z,0
2017-01-09T16:12:15.901Z,0
2017-01-09T16:13:36.592Z,0
2017-01-09T16:14:58.104Z,0
2017-01-09T16:16:17.442Z,0
2017-01-09T16:17:38.364Z,0
2017-01-09T16:22:24.264Z,0
2017-01-09T16:23:37.850Z,0
2017-01-09T16:24:52.139Z,0
2017-01-09T16:26:06.074Z,0
2017-01-09T16:27:19.716Z,0
2017-01-09T16:28:34.101Z,0
2017-01-09T16:29:47.767Z,0
2017-01-09T16:31:01.718Z,0
2017-01-09T16:32:16.211Z,0
2017-01-09T16:33:30.681Z,0
2017-01-09T16:34:44.244Z,0
2017-01-09T16:35:57.926Z,0
2017-01-09T16:37:11.989Z,0
2017-01-09T16:38:25.870Z,0
2017-01-09T16:39:39.623Z,0
2017-01-09T16:40:53.228Z,0
2017-01-09T16:42:08.143Z,0
2017-01-09T16:43:21.734Z,0
2017-01-09T16:44:35.346Z,0
2017-01-09T16:45:48.952Z,0
2017-01-09T16:47:06.349Z,0
2017-01-09T16:48:20.080Z,0
2017-01-09T16:49:34.114Z,0
2017-01-09T16:50:48.209Z,0
2017-01-09T16:52:01.958Z,0
2017-01-09T16:53:15.578Z,0
2017-01-09T16:54:29.170Z,0
2017-01-09T16:55:42.875Z,0
2017-01-09T16:56:57.753Z,0
2017-01-09T16:58:11.856Z,0
2017-01-09T16:59:25.770Z,0
2017-01-09T17:00:39.318Z,0
2017-01-09T17:01:53.903Z,0
2017-01-09T17:03:08.168Z,0
2017-01-09T17:04:22.655Z,0
2017-01-09T17:05:36.283Z,0
2017-01-09T17:06:49.907Z,0
2017-01-09T17:08:03.873Z,0
2017-01-09T17:09:18.053Z,0
2017-01-09T17:10:31.726Z,0
2017-01-09T17:11:45.524Z,0
2017-01-09T17:12:59.281Z,0
2017-01-09T17:14:12.928Z,0
2017-01-09T17:15:27.717Z,0
2017-01-09T17:16:41.378Z,0
2017-01-09T17:17:55.227Z,0
2017-01-09T17:19:08.896Z,0
2017-01-09T17:20:22.671Z,0
2017-01-09T17:21:36.343Z,0
2017-01-09T17:22:49.953Z,0
2017-01-09T17:24:03.772Z,0
2017-01-09T17:25:19.552Z,0
2017-01-09T17:26:33.261Z,0
2017-01-09T17:27:47.175Z,0
2017-01-09T17:29:01.370Z,0
2017-01-09T17:30:15.897Z,0
2017-01-09T17:31:29.626Z,0
2017-01-09T17:32:43.294Z,0
2017-01-09T17:33:57.008Z,0
2017-01-09T17:35:10.607Z,0
2017-01-09T17:36:24.693Z,0
2017-01-09T17:37:38.391Z,0
2017-01-09T17:38:52.499Z,0
2017-01-09T17:40:06.273Z,0
2017-01-09T17:41:20.452Z,0
2017-01-09T17:42:34.217Z,0
2017-01-09T17:43:47.809Z,0
2017-01-09T17:45:02.783Z,0
2017-01-09T17:46:16.401Z,0
2017-01-09T17:47:30.078Z,0
2017-01-09T17:48:43.669Z,0
2017-01-09T17:49:57.909Z,0
2017-01-09T17:51:12.002Z,0
2017-01-09T17:52:26.079Z,0
2017-01-09T17:53:39.715Z,0
2017-01-09T17:54:54.641Z,0
2017-01-09T17:56:10.027Z,0
2017-01-09T17:57:25.159Z,0
2017-01-09T17:58:42.272Z,0
2017-01-09T17:59:59.390Z,0
2017-01-09T18:01:15.796Z,0
2017-01-09T18:02:30.904Z,0
2017-01-09T18:03:50.047Z,0
2017-01-09T18:05:05.267Z,0
2017-01-09T18:06:18.922Z,0
2017-01-09T18:07:32.991Z,0
2017-01-09T18:08:46.711Z,0
2017-01-09T18:10:00.622Z,0
2017-01-09T18:11:14.430Z,0
2017-01-09T18:12:29.847Z,0
2017-01-09T18:13:44.917Z,0
2017-01-09T18:14:59.799Z,0
2017-01-09T18:16:14.998Z,0
2017-01-09T18:17:28.723Z,0
2017-01-09T18:18:43.152Z,0
2017-01-09T18:20:00.072Z,0
2017-01-09T18:21:14.143Z,0
2017-01-09T18:22:27.897Z,0
2017-01-09T18:23:41.525Z,0
2017-01-09T18:24:55.173Z,0
2017-01-09T18:26:08.916Z,0
2017-01-09T18:27:22.546Z,0
2017-01-09T18:28:36.128Z,0
2017-01-09T18:29:50.297Z,0
2017-01-09T18:31:04.088Z,0
2017-01-09T18:32:17.928Z,0
2017-01-09T18:33:31.554Z,0
2017-01-09T18:34:45.277Z,0
2017-01-09T18:36:02.691Z,0
2017-01-09T18:37:16.741Z,0
2017-01-09T18:38:30.307Z,0
2017-01-09T18:39:46.805Z,0
2017-01-09T18:41:02.263Z,0
2017-01-09T18:42:18.587Z,0
2017-01-09T18:43:32.187Z,0
2017-01-09T18:44:45.898Z,0
2017-01-09T18:46:00.944Z,0
2017-01-09T18:47:14.586Z,0
2017-01-09T18:48:28.637Z,0
2017-01-09T18:49:42.214Z,0
2017-01-09T18:50:56.354Z,0
2017-01-09T18:52:10.089Z,0
2017-01-09T18:53:24.199Z,0
2017-01-09T18:54:38.285Z,0
2017-01-09T18:55:52.110Z,0
2017-01-09T18:57:06.814Z,0
2017-01-09T18:58:21.134Z,0
2017-01-09T18:59:35.667Z,0
2017-01-09T19:00:49.304Z,0
2017-01-09T19:02:03.867Z,0
2017-01-09T19:03:17.452Z,0
2017-01-09T19:04:31.078Z,0
2017-01-09T19:05:45.143Z,0
2017-01-09T19:06:58.935Z,0
2017-01-09T19:08:12.721Z,0
2017-01-09T19:09:26.428Z,0
2017-01-09T19:10:40.441Z,0
2017-01-09T19:11:54.922Z,0
2017-01-09T19:13:08.809Z,0
2017-01-09T19:14:22.474Z,0
2017-01-09T19:15:37.361Z,0
2017-01-09T19:16:52.007Z,0
2017-01-09T19:18:05.726Z,0
2017-01-09T19:19:19.377Z,0
2017-01-09T19:20:33.163Z,0
2017-01-09T19:21:47.089Z,0
2017-01-09T19:23:00.770Z,0
2017-01-09T19:24:15.707Z,0
2017-01-09T19:25:29.493Z,0
2017-01-09T19:26:43.230Z,0
2017-01-09T19:27:56.906Z,0
2017-01-09T19:29:10.686Z,0
2017-01-09T19:30:25.550Z,0
2017-01-09T19:31:39.415Z,0
2017-01-09T19:32:53.128Z,0
2017-01-09T19:34:06.858Z,0
2017-01-09T19:35:20.556Z,0
2017-01-09T19:36:34.368Z,0
2017-01-09T19:37:48.433Z,0
2017-01-09T19:39:02.215Z,0
2017-01-09T19:40:18.368Z,0
2017-01-09T19:41:32.183Z,0
2017-01-09T19:42:45.849Z,0
2017-01-09T19:43:59.759Z,0
2017-01-09T19:45:15.480Z,0
2017-01-09T19:46:29.600Z,0
2017-01-09T19:47:43.221Z,0
2017-01-09T19:48:56.898Z,0
2017-01-09T19:50:11.205Z,0
2017-01-09T19:51:25.954Z,0
2017-01-09T19:52:39.662Z,0
2017-01-09T19:53:53.448Z,0
2017-01-09T19:55:10.008Z,0
2017-01-09T19:56:23.956Z,0
2017-01-09T19:57:37.575Z,0
2017-01-09T19:58:53.409Z,0
2017-01-09T20:00:07.306Z,0
2017-01-09T20:01:20.958Z,0
2017-01-09T20:02:34.541Z,0
2017-01-09T20:03:49.735Z,0
2017-01-09T20:05:05.037Z,0
2017-01-09T20:06:18.860Z,0
2017-01-09T20:07:32.850Z,0
2017-01-09T20:08:46.742Z,0
2017-01-09T20:10:00.897Z,0
2017-01-09T20:11:14.593Z,0
2017-01-09T20:12:28.174Z,0
2017-01-09T20:13:42.960Z,0
2017-01-09T20:14:56.767Z,0
2017-01-09T20:16:13.308Z,0
2017-01-09T20:17:27.987Z,0
2017-01-09T20:18:43.621Z,0
2017-01-09T20:20:00.481Z,0
2017-01-09T20:21:16.047Z,0
2017-01-09T20:22:29.736Z,0
2017-01-09T20:23:43.428Z,0
2017-01-09T20:24:57.069Z,0
2017-01-09T20:26:13.087Z,0
2017-01-09T20:27:27.360Z,0
2017-01-09T20:28:41.058Z,0
2017-01-09T20:29:55.548Z,0
2017-01-09T20:31:09.231Z,0
2017-01-09T20:32:23.558Z,0
2017-01-09T20:33:37.757Z,0
2017-01-09T20:34:51.422Z,0
2017-01-09T20:36:05.479Z,0
2017-01-09T20:37:19.282Z,0
2017-01-09T20:38:32.949Z,0
2017-01-09T20:39:47.057Z,0
2017-01-09T20:41:00.722Z,0
2017-01-09T20:42:18.583Z,0
2017-01-09T20:43:35.016Z,0
2017-01-09T20:44:49.328Z,0
2017-01-09T20:46:03.462Z,0
2017-01-09T20:47:17.307Z,0
2017-01-09T20:48:31.676Z,0
2017-01-09T20:49:46.953Z,0
2017-01-09T20:51:01.019Z,0
2017-01-09T20:52:14.937Z,0
2017-01-09T20:53:28.592Z,0
2017-01-09T20:54:42.166Z,0
2017-01-09T20:55:56.004Z,0
2017-01-09T20:57:09.741Z,0
2017-01-09T20:58:23.562Z,0
2017-01-09T20:59:37.151Z,0
2017-01-09T21:00:50.764Z,0
2017-01-09T21:02:04.349Z,0
2017-01-09T21:03:18.064Z,0
2017-01-09T21:04:31.675Z,0
2017-01-09T21:05:45.313Z,0
2017-01-09T21:07:00.125Z,0
2017-01-09T21:08:14.241Z,0
2017-01-09T21:09:27.903Z,0
2017-01-09T21:10:41.552Z,0
2017-01-09T21:11:55.576Z,0
2017-01-09T21:13:09.721Z,0
2017-01-09T21:14:23.831Z,0
2017-01-09T21:15:39.672Z,0
2017-01-09T21:16:53.275Z,0
2017-01-09T21:18:06.877Z,0
2017-01-09T21:19:20.749Z,0
2017-01-09T21:20:34.399Z,0
2017-01-09T21:21:48.497Z,0
2017-01-09T21:23:02.230Z,0
2017-01-09T21:24:16.715Z,0
2017-01-09T21:25:30.482Z,0
2017-01-09T21:26:44.512Z,0
2017-01-09T21:27:58.420Z,0
2017-01-09T21:29:13.462Z,0
2017-01-09T21:30:27.959Z,0
2017-01-09T21:31:41.690Z,0
2017-01-09T21:32:55.398Z,0
2017-01-09T21:34:09.212Z,0
2017-01-09T21:35:28.185Z,0
2017-01-09T21:36:41.813Z,0
2017-01-09T21:37:55.448Z,0
2017-01-09T21:39:09.149Z,0
2017-01-09T21:40:22.891Z,0
2017-01-09T21:41:36.501Z,0
2017-01-09T21:42:50.118Z,0
2017-01-09T21:44:03.730Z,0
2017-01-09T21:45:18.062Z,0
2017-01-09T21:46:32.128Z,0
2017-01-09T21:47:45.770Z,0
2017-01-09T21:48:59.380Z,0
2017-01-09T21:50:13.382Z,0
2017-01-09T21:51:26.916Z,0
2017-01-09T21:52:40.924Z,0
2017-01-09T21:53:54.490Z,0
2017-01-09T21:55:08.103Z,0
2017-01-09T21:56:22.272Z,0
2017-01-09T21:57:35.847Z,0
2017-01-09T21:58:49.487Z,0
2017-01-09T22:00:03.077Z,0
2017-01-09T22:01:16.809Z,0
2017-01-09T22:02:30.958Z,0
2017-01-09T22:03:44.528Z,0
2017-01-09T22:04:58.135Z,0
2017-01-09T22:06:11.804Z,0
2017-01-09T22:07:25.441Z,0
2017-01-09T22:08:39.031Z,0
2017-01-09T22:09:52.676Z,0
2017-01-09T22:11:06.758Z,0
2017-01-09T22:12:20.525Z,0
2017-01-09T22:13:34.128Z,0
2017-01-09T22:14:47.824Z,0
2017-01-09T22:16:01.867Z,0
2017-01-09T22:17:16.682Z,0
2017-01-09T22:18:30.408Z,0
2017-01-09T22:19:44.072Z,0
2017-01-09T22:20:57.681Z,0
2017-01-09T22:22:11.365Z,0
2017-01-09T22:23:25.009Z,0
2017-01-09T22:24:38.893Z,0
2017-01-09T22:25:52.510Z,0
2017-01-09T22:27:06.202Z,0
2017-01-09T22:28:19.768Z,0
2017-01-09T22:29:33.475Z,0
2017-01-09T22:30:47.089Z,0
2017-01-09T22:32:03.151Z,0
2017-01-09T22:33:18.014Z,0
2017-01-09T22:34:31.627Z,0
2017-01-09T22:35:45.865Z,0
2017-01-09T22:36:59.471Z,0
2017-01-09T22:38:13.292Z,0
2017-01-09T22:39:27.336Z,0
2017-01-09T22:40:40.920Z,0
2017-01-09T22:41:54.501Z,0
2017-01-09T22:43:08.200Z,0
2017-01-09T22:44:22.210Z,0
2017-01-09T22:45:36.217Z,0
2017-01-09T22:46:49.801Z,0
2017-01-09T22:48:04.444Z,0
2017-01-09T22:49:19.312Z,0
2017-01-09T22:50:33.400Z,0
2017-01-09T22:51:47.014Z,0
2017-01-09T22:53:01.058Z,0
2017-01-09T22:54:15.255Z,0
2017-01-09T22:55:29.077Z,0
2017-01-09T22:56:42.669Z,0
2017-01-09T22:57:56.707Z,0
2017-01-09T22:59:10.406Z,0
2017-01-09T23:00:24.012Z,0
2017-01-09T23:01:37.630Z,0
2017-01-09T23:02:51.205Z,0
2017-01-09T23:04:05.018Z,0
2017-01-09T23:05:18.668Z,0
2017-01-09T23:06:32.350Z,0
2017-01-09T23:07:45.997Z,0
2017-01-09T23:08:59.645Z,0
2017-01-09T23:10:13.391Z,0
2017-01-09T23:11:27.038Z,0
2017-01-09T23:12:40.682Z,0
2017-01-09T23:13:54.260Z,0
2017-01-09T23:15:09.325Z,0
2017-01-09T23:16:22.983Z,0
2017-01-09T23:17:36.641Z,0
2017-01-09T23:18:50.215Z,0
2017-01-09T23:20:03.844Z,0